Time;durP1;ratioP1;P1;durP2;ratioP2;P2;SDS_P1;SDS_P2;PMS_P1;PMS_P2;Temp;Humidity;BMP_temperature;BMP_pressure;BME280_temperature;BME280_humidity;BME280_pressure;Samples;Min_cycle;Max_cycle;Signal;HPM_P1;HPM_P2
2023/06/14 00:00:49;;;;;;;7.17;5.97;;;22.80;37.20;;;;;;4943891;29;20451;-89
2023/06/14 00:03:17;;;;;;;10.40;6.13;;;22.80;37.10;;;;;;4906619;29;20804;-89
2023/06/14 00:05:46;;;;;;;6.53;5.77;;;22.80;36.70;;;;;;4912318;29;20463;-89
2023/06/14 00:08:13;;;;;;;6.37;5.77;;;22.70;36.80;;;;;;4913730;29;21008;-88
2023/06/14 00:10:41;;;;;;;6.60;5.40;;;22.70;37.20;;;;;;4910142;29;20454;-89
2023/06/14 00:13:10;;;;;;;7.10;6.40;;;22.60;37.00;;;;;;4906294;29;20531;-87
2023/06/14 00:15:37;;;;;;;7.10;6.40;;;22.50;37.10;;;;;;4909565;29;20461;-87
2023/06/14 00:18:05;;;;;;;8.13;6.30;;;22.40;36.70;;;;;;4906001;29;20485;-90
2023/06/14 00:20:33;;;;;;;5.97;5.47;;;22.30;37.30;;;;;;4920257;29;20998;-89
2023/06/14 00:23:00;;;;;;;7.10;6.40;;;22.20;38.10;;;;;;4912729;29;20525;-88
2023/06/14 00:25:27;;;;;;;7.63;6.03;;;22.20;39.70;;;;;;4928667;29;20467;-89
2023/06/14 00:27:55;;;;;;;7.13;6.10;;;22.20;39.50;;;;;;4926144;29;20533;-87
2023/06/14 00:30:24;;;;;;;6.80;6.20;;;22.20;40.10;;;;;;4913699;29;20460;-88
2023/06/14 00:32:51;;;;;;;6.37;5.60;;;22.20;40.60;;;;;;4913186;29;20442;-89
2023/06/14 00:35:18;;;;;;;11.93;6.40;;;22.20;40.70;;;;;;4929098;29;20506;-88
2023/06/14 00:37:45;;;;;;;6.63;5.90;;;22.20;40.80;;;;;;4912039;28;20485;-87
2023/06/14 00:40:12;;;;;;;7.43;6.63;;;22.20;40.80;;;;;;4926235;29;20459;-90
2023/06/14 00:42:39;;;;;;;6.90;6.20;;;22.20;40.80;;;;;;4930811;29;20441;-89
2023/06/14 00:45:07;;;;;;;6.97;6.17;;;22.20;40.80;;;;;;4902259;29;20455;-90
2023/06/14 00:47:38;;;;;;;7.40;6.70;;;22.10;40.30;;;;;;4923016;29;20449;-89
2023/06/14 00:50:08;;;;;;;10.17;6.90;;;22.10;40.40;;;;;;4908652;29;20469;-89
2023/06/14 00:52:35;;;;;;;7.40;6.70;;;22.10;41.10;;;;;;4929993;29;20458;-89
2023/06/14 00:55:02;;;;;;;8.23;6.23;;;22.00;41.00;;;;;;4904871;29;20454;-87
2023/06/14 00:57:30;;;;;;;7.47;6.67;;;22.00;41.10;;;;;;4913250;28;20459;-88
2023/06/14 00:59:57;;;;;;;8.77;7.27;;;21.90;41.00;;;;;;4927485;29;20446;-89
2023/06/14 01:02:25;;;;;;;8.17;7.37;;;21.90;41.10;;;;;;4910633;29;20478;-88
2023/06/14 01:04:55;;;;;;;7.10;6.37;;;21.80;41.50;;;;;;4921515;29;20466;-88
2023/06/14 01:07:34;;;;;;;8.97;6.27;;;21.80;41.50;;;;;;4929306;29;20489;-89
2023/06/14 01:10:14;;;;;;;6.40;5.80;;;21.70;42.30;;;;;;4907506;29;21017;-89
2023/06/14 01:12:50;;;;;;;8.57;6.60;;;21.70;41.30;;;;;;4914307;29;20457;-89
2023/06/14 01:15:18;;;;;;;11.77;7.13;;;21.70;41.50;;;;;;4929251;29;20449;-89
2023/06/14 01:17:47;;;;;;;7.60;6.60;;;21.70;41.90;;;;;;4928854;28;20457;-88
2023/06/14 01:20:17;;;;;;;7.57;6.77;;;21.70;41.80;;;;;;4907119;29;20552;-89
2023/06/14 01:22:52;;;;;;;7.50;6.50;;;21.60;41.70;;;;;;4911587;29;20466;-88
2023/06/14 01:25:20;;;;;;;7.47;6.50;;;21.60;42.20;;;;;;4912611;29;20454;-89
2023/06/14 01:27:49;;;;;;;7.30;6.50;;;21.50;41.90;;;;;;4913193;28;21038;-89
2023/06/14 01:30:17;;;;;;;7.70;5.83;;;21.50;41.20;;;;;;4922095;29;21155;-90
2023/06/14 01:32:45;;;;;;;6.77;6.07;;;21.50;41.40;;;;;;4913804;29;20462;-87
2023/06/14 01:35:12;;;;;;;8.10;5.93;;;21.30;41.00;;;;;;4911369;29;20953;-90
2023/06/14 01:37:41;;;;;;;9.07;6.37;;;21.30;41.60;;;;;;4928660;28;20983;-89
2023/06/14 01:40:11;;;;;;;8.37;6.97;;;21.30;41.70;;;;;;4907542;29;20466;-88
2023/06/14 01:42:40;;;;;;;8.27;5.57;;;21.30;41.30;;;;;;4926029;29;21485;-89
2023/06/14 01:45:09;;;;;;;6.60;5.90;;;21.30;41.00;;;;;;4909777;29;20517;-89
2023/06/14 01:47:37;;;;;;;6.30;5.70;;;21.30;41.10;;;;;;4912683;29;20485;-89
2023/06/14 01:50:04;;;;;;;6.30;5.37;;;21.30;41.00;;;;;;4918145;29;20451;-89
2023/06/14 01:52:31;;;;;;;9.83;6.03;;;21.20;40.00;;;;;;4914051;29;20497;-90
2023/06/14 01:55:02;;;;;;;7.00;6.30;;;21.10;40.80;;;;;;4927258;29;20468;-89
2023/06/14 01:57:32;;;;;;;6.70;5.97;;;21.10;41.20;;;;;;4929781;29;20462;-89
2023/06/14 02:00:00;;;;;;;6.63;6.00;;;21.20;41.30;;;;;;4928120;29;20453;-89
2023/06/14 02:02:27;;;;;;;6.53;5.93;;;21.10;41.30;;;;;;4921618;29;20467;-88
2023/06/14 02:04:57;;;;;;;6.50;5.77;;;21.10;41.20;;;;;;4922710;29;20458;-89
2023/06/14 02:07:24;;;;;;;6.10;5.60;;;21.10;41.30;;;;;;4928450;29;20513;-89
2023/06/14 02:09:52;;;;;;;10.17;6.70;;;21.10;41.40;;;;;;4947897;29;20520;-89
2023/06/14 02:12:19;;;;;;;8.70;6.03;;;21.10;41.80;;;;;;4933013;29;20469;-89
2023/06/14 02:14:48;;;;;;;8.90;6.20;;;21.10;41.80;;;;;;4914210;29;20461;-89
2023/06/14 02:17:15;;;;;;;7.23;6.10;;;21.00;41.70;;;;;;4926835;29;20482;-89
2023/06/14 02:19:43;;;;;;;6.70;6.10;;;21.00;42.00;;;;;;4910922;29;21031;-89
2023/06/14 02:22:10;;;;;;;6.43;5.73;;;21.00;42.50;;;;;;4919065;29;20473;-89
2023/06/14 02:24:37;;;;;;;8.83;6.30;;;20.90;42.20;;;;;;4924652;29;20463;-89
2023/06/14 02:27:08;;;;;;;7.43;6.30;;;20.90;42.50;;;;;;4928975;29;20474;-91
2023/06/14 02:29:37;;;;;;;7.50;6.60;;;20.90;43.10;;;;;;4930451;29;20477;-89
2023/06/14 02:32:07;;;;;;;7.53;6.83;;;20.80;42.90;;;;;;4913040;29;20489;-89
2023/06/14 02:34:34;;;;;;;6.07;5.47;;;20.70;43.00;;;;;;4913817;29;20456;-89
2023/06/14 02:37:02;;;;;;;8.63;6.20;;;20.70;43.10;;;;;;4928340;29;20448;-89
2023/06/14 02:39:29;;;;;;;7.57;6.83;;;20.70;43.40;;;;;;4930456;29;20536;-87
2023/06/14 02:41:56;;;;;;;8.83;7.77;;;20.60;42.70;;;;;;4925621;29;20914;-89
2023/06/14 02:44:26;;;;;;;7.03;6.30;;;20.50;42.90;;;;;;4924027;29;20479;-89
2023/06/14 02:46:53;;;;;;;6.30;5.70;;;20.50;42.80;;;;;;4915382;29;20561;-88
2023/06/14 02:49:23;;;;;;;12.10;7.23;;;20.20;42.40;;;;;;4926872;29;20497;-87
2023/06/14 02:51:49;;;;;;;14.50;6.77;;;20.20;43.40;;;;;;4929320;29;20438;-89
2023/06/14 02:54:16;;;;;;;6.97;6.37;;;20.20;42.20;;;;;;4927489;29;20462;-88
2023/06/14 02:56:44;;;;;;;7.13;5.67;;;20.20;43.10;;;;;;4911733;29;20523;-88
2023/06/14 02:59:11;;;;;;;6.10;5.50;;;20.20;41.80;;;;;;4929276;29;20477;-89
2023/06/14 03:01:40;;;;;;;7.93;5.97;;;20.20;42.30;;;;;;4929935;29;20542;-89
2023/06/14 03:04:09;;;;;;;7.63;5.90;;;20.20;42.40;;;;;;4921376;29;20459;-87
2023/06/14 03:06:40;;;;;;;8.97;6.47;;;20.20;41.20;;;;;;4912553;29;20469;-88
2023/06/14 03:09:09;;;;;;;9.13;6.43;;;20.00;41.70;;;;;;4913188;29;20476;-89
2023/06/14 03:11:38;;;;;;;6.97;5.47;;;20.00;41.70;;;;;;4930840;29;20447;-88
2023/06/14 03:14:06;;;;;;;9.37;6.13;;;20.00;41.30;;;;;;4912155;29;20459;-88
2023/06/14 03:16:33;;;;;;;6.77;6.17;;;20.00;41.60;;;;;;4926859;29;20461;-88
2023/06/14 03:19:01;;;;;;;7.53;5.80;;;20.00;42.30;;;;;;4929237;29;20481;-88
2023/06/14 03:21:32;;;;;;;7.47;6.57;;;20.10;42.30;;;;;;4945443;28;20442;-89
2023/06/14 03:24:03;;;;;;;8.27;6.37;;;20.20;42.70;;;;;;4929199;29;20456;-87
2023/06/14 03:26:31;;;;;;;8.50;6.30;;;20.20;42.70;;;;;;4924581;29;20471;-89
2023/06/14 03:28:59;;;;;;;10.63;7.10;;;20.20;42.80;;;;;;4929303;29;20463;-90
2023/06/14 03:31:33;;;;;;;6.47;5.87;;;20.20;43.20;;;;;;4931243;29;20541;-90
2023/06/14 03:34:01;;;;;;;10.13;6.77;;;20.30;42.80;;;;;;4937224;28;20458;-89
2023/06/14 03:36:29;;;;;;;9.30;6.70;;;20.30;43.20;;;;;;4915540;29;20966;-90
2023/06/14 03:38:56;;;;;;;7.27;6.17;;;20.20;43.50;;;;;;4927150;29;20498;-89
2023/06/14 03:41:26;;;;;;;7.90;5.83;;;20.20;42.70;;;;;;4926328;29;20572;-89
2023/06/14 03:43:53;;;;;;;6.70;6.10;;;20.20;42.80;;;;;;4940132;29;20461;-88
2023/06/14 03:46:20;;;;;;;14.10;6.97;;;20.20;42.50;;;;;;4912205;29;20485;-88
2023/06/14 03:48:47;;;;;;;9.07;7.07;;;20.20;41.70;;;;;;4910056;29;20477;-89
2023/06/14 03:51:14;;;;;;;7.97;6.20;;;20.10;42.10;;;;;;4913057;29;20497;-87
2023/06/14 03:53:41;;;;;;;9.50;5.93;;;20.10;42.60;;;;;;4925336;29;20469;-89
2023/06/14 03:56:08;;;;;;;6.60;6.00;;;20.20;43.00;;;;;;4911948;29;20462;-87
2023/06/14 03:58:42;;;;;;;7.00;5.63;;;20.20;42.70;;;;;;4941726;29;20504;-88
2023/06/14 04:01:09;;;;;;;10.00;6.17;;;20.20;43.20;;;;;;4920803;29;20526;-91
2023/06/14 04:03:36;;;;;;;6.50;5.90;;;20.20;43.40;;;;;;4919034;29;20459;-89
2023/06/14 04:06:05;;;;;;;7.03;5.63;;;20.30;43.80;;;;;;4916556;29;20507;-87
2023/06/14 04:08:32;;;;;;;9.93;7.13;;;20.20;44.00;;;;;;4910238;29;20502;-87
2023/06/14 04:10:59;;;;;;;8.47;6.50;;;20.30;44.10;;;;;;4914682;29;20567;-89
2023/06/14 04:13:26;;;;;;;10.47;7.57;;;20.20;45.00;;;;;;4912952;29;20533;-88
2023/06/14 04:15:56;;;;;;;7.60;6.23;;;20.20;45.10;;;;;;4927431;29;20836;-87
2023/06/14 04:18:27;;;;;;;7.20;6.50;;;20.20;44.40;;;;;;4921201;29;20482;-87
2023/06/14 04:20:56;;;;;;;8.40;6.23;;;20.20;44.00;;;;;;4928465;29;21039;-87
2023/06/14 04:23:23;;;;;;;8.20;5.70;;;20.10;43.40;;;;;;4910794;29;20454;-89
2023/06/14 04:25:50;;;;;;;9.40;6.17;;;20.10;43.20;;;;;;4923413;29;20473;-89
2023/06/14 04:28:18;;;;;;;7.47;6.53;;;20.00;42.00;;;;;;4927288;29;20481;-88
2023/06/14 04:30:47;;;;;;;12.60;6.83;;;19.80;44.20;;;;;;4912454;29;20541;-88
2023/06/14 04:33:17;;;;;;;7.10;6.33;;;19.90;45.50;;;;;;4908082;29;20454;-88
2023/06/14 04:35:47;;;;;;;9.70;6.77;;;20.00;45.80;;;;;;4925875;29;20956;-87
2023/06/14 04:38:15;;;;;;;6.93;6.23;;;20.10;45.70;;;;;;4922805;29;20541;-88
2023/06/14 04:40:44;;;;;;;7.07;5.97;;;20.10;45.40;;;;;;4904704;29;20439;-88
2023/06/14 04:43:13;;;;;;;9.10;6.90;;;20.20;45.60;;;;;;4924471;29;20951;-89
2023/06/14 04:45:44;;;;;;;8.90;6.50;;;20.20;45.50;;;;;;4905556;29;20463;-87
2023/06/14 04:48:13;;;;;;;7.37;6.50;;;20.30;45.50;;;;;;4929722;29;20496;-88
2023/06/14 04:50:43;;;;;;;7.60;6.90;;;20.30;45.40;;;;;;4911119;29;20985;-88
2023/06/14 04:53:11;;;;;;;10.20;6.03;;;20.30;45.20;;;;;;4920609;29;20466;-88
2023/06/14 04:55:38;;;;;;;10.30;5.80;;;20.40;45.00;;;;;;4918311;29;20462;-88
2023/06/14 04:58:06;;;;;;;8.40;6.30;;;20.40;45.00;;;;;;4944395;28;20478;-89
2023/06/14 05:00:33;;;;;;;7.40;5.80;;;20.40;45.10;;;;;;4911565;29;20447;-88
2023/06/14 05:03:00;;;;;;;6.60;6.00;;;20.40;45.20;;;;;;4919313;29;20454;-87
2023/06/14 05:05:28;;;;;;;10.80;6.23;;;20.50;44.50;;;;;;4914041;29;20496;-87
2023/06/14 05:07:56;;;;;;;6.93;5.73;;;20.50;44.10;;;;;;4926355;29;21245;-87
2023/06/14 05:10:23;;;;;;;10.00;6.93;;;20.50;44.10;;;;;;4926001;29;20917;-88
2023/06/14 05:12:52;;;;;;;8.03;6.87;;;20.50;44.60;;;;;;4905152;29;20455;-89
2023/06/14 05:15:20;;;;;;;10.77;5.90;;;20.60;45.40;;;;;;4911591;29;20483;-88
2023/06/14 05:17:54;;;;;;;7.30;6.10;;;20.60;45.40;;;;;;4925161;29;20876;-88
2023/06/14 05:20:22;;;;;;;8.07;6.00;;;20.60;44.10;;;;;;4910854;29;20557;-89
2023/06/14 05:22:51;;;;;;;33.23;5.87;;;20.50;44.60;;;;;;4914309;29;20517;-88
2023/06/14 05:25:19;;;;;;;6.87;6.20;;;20.50;45.20;;;;;;4925900;29;20458;-89
2023/06/14 05:27:46;;;;;;;5.93;5.27;;;20.60;45.00;;;;;;4912468;29;21031;-87
2023/06/14 05:30:15;;;;;;;7.73;6.43;;;20.40;43.20;;;;;;4912228;29;20531;-88
2023/06/14 05:32:42;;;;;;;7.57;5.83;;;20.30;44.10;;;;;;4927985;29;20464;-89
2023/06/14 05:35:10;;;;;;;6.30;5.50;;;20.50;44.20;;;;;;4918836;29;20538;-90
2023/06/14 05:37:37;;;;;;;6.33;5.67;;;20.50;44.00;;;;;;4912366;28;20451;-87
2023/06/14 05:40:06;;;;;;;8.70;5.87;;;20.50;43.90;;;;;;4924539;29;20478;-86
2023/06/14 05:42:34;;;;;;;6.30;5.70;;;20.60;43.70;;;;;;4940481;29;20463;-88
2023/06/14 05:45:01;;;;;;;8.23;6.00;;;20.70;44.00;;;;;;4919692;29;20522;-87
2023/06/14 05:47:28;;;;;;;7.77;5.60;;;20.90;44.50;;;;;;4923380;29;20505;-87
2023/06/14 05:49:55;;;;;;;5.87;5.27;;;20.90;42.90;;;;;;4907248;29;20479;-86
2023/06/14 05:52:22;;;;;;;7.50;5.53;;;20.70;43.00;;;;;;4928093;29;20486;-87
2023/06/14 05:54:49;;;;;;;6.77;5.33;;;20.90;43.20;;;;;;4924148;29;20549;-86
2023/06/14 05:57:16;;;;;;;6.43;5.33;;;21.00;43.20;;;;;;4913190;29;20449;-87
2023/06/14 05:59:44;;;;;;;8.13;5.60;;;21.10;43.10;;;;;;4924945;29;21010;-85
2023/06/14 06:02:11;;;;;;;6.37;5.30;;;21.10;43.00;;;;;;4927100;29;20454;-87
2023/06/14 06:04:38;;;;;;;6.17;5.57;;;21.10;43.20;;;;;;4913372;29;20947;-86
2023/06/14 06:07:06;;;;;;;8.30;5.00;;;21.20;42.70;;;;;;4920472;29;21213;-87
2023/06/14 06:09:33;;;;;;;6.00;5.10;;;21.40;41.80;;;;;;4924040;29;21652;-87
2023/06/14 06:12:00;;;;;;;5.90;5.30;;;21.70;42.70;;;;;;4926753;29;20472;-87
2023/06/14 06:14:28;;;;;;;6.80;4.90;;;22.00;41.60;;;;;;4939573;28;20468;-87
2023/06/14 06:16:56;;;;;;;7.20;5.17;;;22.20;41.10;;;;;;4927529;29;20442;-88
2023/06/14 06:19:23;;;;;;;5.50;4.70;;;22.10;40.60;;;;;;4909100;29;20474;-87
2023/06/14 06:21:50;;;;;;;7.03;4.60;;;22.20;40.90;;;;;;4904182;29;20447;-86
2023/06/14 06:24:17;;;;;;;9.13;5.13;;;22.20;40.50;;;;;;4911263;29;20456;-86
2023/06/14 06:26:44;;;;;;;5.27;4.73;;;22.20;40.40;;;;;;4936792;29;20466;-84
2023/06/14 06:29:11;;;;;;;5.70;5.20;;;22.30;40.50;;;;;;4926436;29;20486;-87
2023/06/14 06:31:38;;;;;;;8.17;4.33;;;22.30;40.70;;;;;;4934999;29;20824;-85
2023/06/14 06:34:06;;;;;;;5.67;4.77;;;22.50;41.70;;;;;;4911135;29;20549;-86
2023/06/14 06:36:33;;;;;;;6.23;5.63;;;22.90;40.90;;;;;;4926777;29;20903;-87
2023/06/14 06:39:00;;;;;;;5.73;5.00;;;22.70;40.40;;;;;;4917905;29;20467;-85
2023/06/14 06:41:27;;;;;;;6.40;4.83;;;22.90;40.90;;;;;;4909839;29;20500;-87
2023/06/14 06:43:54;;;;;;;8.30;5.40;;;23.00;39.60;;;;;;4911369;29;20506;-86
2023/06/14 06:46:22;;;;;;;5.40;5.00;;;23.20;40.00;;;;;;4906726;29;20462;-86
2023/06/14 06:48:49;;;;;;;11.60;5.60;;;23.20;39.70;;;;;;4922266;29;21199;-86
2023/06/14 06:51:17;;;;;;;6.50;5.73;;;23.00;39.90;;;;;;4934598;28;20435;-86
2023/06/14 06:53:44;;;;;;;7.03;4.73;;;23.00;40.20;;;;;;4908388;29;20505;-86
2023/06/14 06:56:11;;;;;;;6.93;5.57;;;23.00;39.90;;;;;;4919810;29;20459;-87
2023/06/14 06:58:38;;;;;;;5.37;4.90;;;23.20;40.50;;;;;;4933686;28;20467;-86
2023/06/14 07:01:06;;;;;;;5.90;4.63;;;23.20;39.50;;;;;;4901521;29;20457;-86
2023/06/14 07:03:33;;;;;;;6.17;5.57;;;23.20;40.70;;;;;;4920626;29;20841;-88
2023/06/14 07:06:00;;;;;;;5.83;5.33;;;23.30;40.50;;;;;;4907654;29;20458;-87
2023/06/14 07:08:28;;;;;;;5.60;5.10;;;23.60;40.30;;;;;;4928449;29;20553;-87
2023/06/14 07:10:55;;;;;;;6.13;5.53;;;23.80;39.30;;;;;;4926446;29;20948;-87
2023/06/14 07:13:22;;;;;;;8.13;4.90;;;23.60;39.70;;;;;;4919122;29;20457;-88
2023/06/14 07:15:49;;;;;;;6.43;4.53;;;23.60;39.80;;;;;;4928580;29;20474;-85
2023/06/14 07:18:16;;;;;;;8.47;5.60;;;23.60;39.50;;;;;;4920290;29;20578;-89
2023/06/14 07:20:43;;;;;;;6.20;5.70;;;23.50;39.50;;;;;;4912413;29;20459;-87
2023/06/14 07:23:10;;;;;;;8.97;5.47;;;23.60;38.70;;;;;;4935601;28;20822;-87
2023/06/14 07:25:39;;;;;;;5.10;4.70;;;23.60;38.70;;;;;;4921328;29;20864;-86
2023/06/14 07:28:06;;;;;;;10.53;5.00;;;23.60;39.00;;;;;;4923281;29;20521;-87
2023/06/14 07:30:33;;;;;;;7.97;5.37;;;23.80;39.10;;;;;;4911602;29;20455;-88
2023/06/14 07:33:01;;;;;;;8.40;5.50;;;24.00;38.30;;;;;;4922937;29;20447;-89
2023/06/14 07:35:28;;;;;;;5.60;5.07;;;24.10;38.20;;;;;;4920009;29;20477;-89
2023/06/14 07:37:55;;;;;;;5.37;4.87;;;24.30;37.80;;;;;;4907437;29;20465;-86
2023/06/14 07:40:22;;;;;;;6.17;5.57;;;24.20;38.50;;;;;;4908820;29;20541;-87
2023/06/14 07:42:50;;;;;;;8.40;5.77;;;24.40;38.10;;;;;;4920076;29;21182;-87
2023/06/14 07:45:19;;;;;;;9.70;5.40;;;24.20;38.00;;;;;;4920375;29;20542;-85
2023/06/14 07:47:46;;;;;;;8.30;5.50;;;24.10;37.80;;;;;;4918616;28;20490;-86
2023/06/14 07:50:13;;;;;;;6.57;5.33;;;23.90;38.20;;;;;;4934266;29;20464;-87
2023/06/14 07:52:40;;;;;;;10.10;5.40;;;24.00;38.10;;;;;;4910079;29;20471;-86
2023/06/14 07:55:08;;;;;;;6.43;5.37;;;23.90;38.30;;;;;;4917302;29;20458;-86
2023/06/14 07:57:35;;;;;;;6.00;5.40;;;23.80;37.90;;;;;;4923276;28;20465;-86
2023/06/14 08:00:06;;;;;;;4.83;4.33;;;24.10;38.70;;;;;;4921327;29;20465;-87
2023/06/14 08:02:39;;;;;;;5.50;5.00;;;24.30;38.00;;;;;;4934784;29;20541;-85
2023/06/14 08:05:06;;;;;;;10.30;5.97;;;24.40;38.60;;;;;;4914620;29;20470;-87
2023/06/14 08:07:33;;;;;;;6.00;4.80;;;24.50;37.30;;;;;;4918930;29;20461;-87
2023/06/14 08:10:00;;;;;;;9.43;5.00;;;24.70;38.00;;;;;;4921088;29;20447;-87
2023/06/14 08:12:27;;;;;;;4.50;4.10;;;24.70;37.20;;;;;;4933134;28;20459;-86
2023/06/14 08:14:54;;;;;;;5.33;4.83;;;24.80;36.70;;;;;;4917196;29;20446;-88
2023/06/14 08:17:22;;;;;;;8.23;5.77;;;24.80;36.50;;;;;;4931753;29;20555;-86
2023/06/14 08:19:49;;;;;;;5.13;4.63;;;24.60;37.70;;;;;;4947855;28;20499;-86
2023/06/14 08:22:17;;;;;;;5.20;4.70;;;24.90;37.20;;;;;;4914148;29;20992;-88
2023/06/14 08:24:44;;;;;;;5.13;4.73;;;25.10;37.00;;;;;;4923229;29;21089;-87
2023/06/14 08:27:13;;;;;;;5.50;5.00;;;25.00;35.60;;;;;;4928988;28;20487;-88
2023/06/14 08:29:41;;;;;;;5.17;4.07;;;25.20;36.30;;;;;;4918524;29;20486;-85
2023/06/14 08:32:08;;;;;;;11.03;4.77;;;25.20;36.80;;;;;;4905707;29;20482;-87
2023/06/14 08:34:37;;;;;;;5.10;4.60;;;25.30;35.60;;;;;;4909414;29;20465;-88
2023/06/14 08:37:05;;;;;;;5.40;4.27;;;25.70;35.20;;;;;;4906619;29;20942;-86
2023/06/14 08:39:32;;;;;;;5.73;4.53;;;25.90;34.50;;;;;;4931272;29;20968;-87
2023/06/14 08:42:02;;;;;;;4.47;4.07;;;26.00;34.20;;;;;;4924596;29;20462;-88
2023/06/14 08:44:29;;;;;;;5.37;4.90;;;26.00;34.10;;;;;;4932256;29;20458;-86
2023/06/14 08:46:57;;;;;;;4.70;4.33;;;25.70;33.80;;;;;;4900501;29;20570;-86
2023/06/14 08:49:26;;;;;;;5.77;5.23;;;25.70;34.60;;;;;;4910113;29;20525;-88
2023/06/14 08:51:58;;;;;;;6.70;4.90;;;25.70;34.30;;;;;;4921725;29;20963;-87
2023/06/14 08:54:27;;;;;;;6.30;5.23;;;25.80;33.90;;;;;;4889894;29;1028906;-87
2023/06/14 08:56:57;;;;;;;5.63;5.00;;;26.10;34.10;;;;;;4923982;29;20225;-87
2023/06/14 08:59:25;;;;;;;6.87;4.40;;;26.40;34.00;;;;;;4922163;29;20474;-88
2023/06/14 09:01:54;;;;;;;6.93;4.80;;;26.60;33.40;;;;;;4921794;29;20458;-86
2023/06/14 09:04:22;;;;;;;5.50;4.97;;;26.90;32.90;;;;;;4909131;29;20935;-88
2023/06/14 09:06:52;;;;;;;5.47;4.90;;;27.10;33.00;;;;;;4922292;29;20458;-86
2023/06/14 09:09:22;;;;;;;5.93;4.60;;;26.90;32.50;;;;;;4906486;29;20577;-85
2023/06/14 09:11:50;;;;;;;6.53;4.70;;;26.80;34.20;;;;;;4935107;29;20454;-86
2023/06/14 09:14:17;;;;;;;4.70;4.30;;;26.80;32.70;;;;;;4936165;29;20446;-89
2023/06/14 09:16:45;;;;;;;5.23;4.03;;;26.80;32.40;;;;;;4923270;29;20465;-89
2023/06/14 09:19:21;;;;;;;5.70;4.27;;;26.90;32.70;;;;;;4933459;28;20772;-89
2023/06/14 09:21:49;;;;;;;8.33;4.60;;;27.10;31.30;;;;;;4901397;29;20443;-88
2023/06/14 09:24:16;;;;;;;4.80;4.40;;;27.20;31.90;;;;;;4902453;29;20454;-87
2023/06/14 09:26:47;;;;;;;8.50;5.37;;;27.50;31.90;;;;;;4916266;29;20442;-88
2023/06/14 09:29:14;;;;;;;8.57;4.70;;;27.80;30.70;;;;;;4923756;29;20480;-86
2023/06/14 09:31:42;;;;;;;4.67;4.17;;;28.10;30.80;;;;;;4917941;29;20474;-86
2023/06/14 09:34:10;;;;;;;6.73;5.60;;;27.80;30.60;;;;;;4916225;29;20451;-87
2023/06/14 09:36:37;;;;;;;6.80;4.67;;;27.60;30.50;;;;;;4915667;29;20450;-86
2023/06/14 09:39:06;;;;;;;5.27;4.87;;;27.40;31.80;;;;;;4911175;29;20467;-86
2023/06/14 09:41:33;;;;;;;6.80;4.90;;;27.50;30.70;;;;;;4917482;29;20449;-86
2023/06/14 09:44:03;;;;;;;5.50;4.20;;;27.60;30.90;;;;;;4938342;28;20474;-86
2023/06/14 09:46:30;;;;;;;5.67;4.63;;;27.80;30.60;;;;;;4930973;29;20458;-85
2023/06/14 09:48:58;;;;;;;5.70;5.07;;;28.00;30.10;;;;;;4919941;29;20573;-85
2023/06/14 09:51:25;;;;;;;5.33;4.93;;;28.00;29.80;;;;;;4919608;29;20478;-85
2023/06/14 09:53:54;;;;;;;5.27;4.83;;;27.70;30.10;;;;;;4923573;29;20493;-87
2023/06/14 09:56:26;;;;;;;7.73;4.70;;;27.50;30.10;;;;;;4928061;29;20528;-85
2023/06/14 09:58:56;;;;;;;4.70;4.20;;;27.40;30.90;;;;;;4905697;29;20842;-86
2023/06/14 10:01:27;;;;;;;5.07;4.57;;;27.80;31.00;;;;;;4927403;29;20486;-85
2023/06/14 10:03:58;;;;;;;9.67;5.17;;;28.00;29.60;;;;;;4907152;29;20493;-86
2023/06/14 10:06:26;;;;;;;7.40;4.30;;;28.30;29.80;;;;;;4931562;29;20462;-86
2023/06/14 10:08:59;;;;;;;5.93;4.67;;;28.40;30.30;;;;;;4912815;29;20497;-85
2023/06/14 10:11:27;;;;;;;6.07;4.63;;;28.60;28.80;;;;;;4928189;29;20467;-86
2023/06/14 10:13:55;;;;;;;9.43;4.43;;;28.90;30.00;;;;;;4928242;29;20459;-85
2023/06/14 10:16:29;;;;;;;4.27;3.87;;;29.00;29.30;;;;;;4921067;29;20450;-85
2023/06/14 10:19:05;;;;;;;9.13;4.70;;;29.30;28.10;;;;;;4918807;29;20466;-85
2023/06/14 10:21:38;;;;;;;4.63;4.23;;;29.60;28.20;;;;;;4929147;28;20533;-86
2023/06/14 10:24:09;;;;;;;5.27;4.77;;;29.20;28.40;;;;;;4927675;29;20513;-85
2023/06/14 10:26:36;;;;;;;4.70;4.30;;;28.90;28.40;;;;;;4909913;29;20459;-86
2023/06/14 10:29:09;;;;;;;4.80;4.40;;;29.00;28.50;;;;;;4929071;29;20467;-85
2023/06/14 10:31:45;;;;;;;4.87;4.47;;;29.30;27.70;;;;;;4929311;29;20500;-85
2023/06/14 10:34:12;;;;;;;4.90;4.37;;;29.60;27.60;;;;;;4906425;29;20450;-87
2023/06/14 10:36:43;;;;;;;4.43;4.03;;;29.80;27.50;;;;;;4935743;29;20847;-86
2023/06/14 10:39:16;;;;;;;4.70;4.30;;;30.00;26.40;;;;;;4921108;29;20475;-85
2023/06/14 10:41:50;;;;;;;13.80;4.77;;;29.80;26.80;;;;;;4919299;29;20446;-86
2023/06/14 10:44:41;;;;;;;5.00;4.03;;;29.60;27.50;;;;;;4921748;29;20481;-86
2023/06/14 10:47:11;;;;;;;4.97;4.30;;;29.70;27.10;;;;;;4905168;29;20883;-85
2023/06/14 10:49:43;;;;;;;4.70;4.30;;;29.90;27.10;;;;;;4924336;29;20489;-85
2023/06/14 10:52:18;;;;;;;4.53;4.10;;;30.10;27.30;;;;;;4922733;29;20975;-85
2023/06/14 10:55:09;;;;;;;4.40;3.80;;;30.30;26.90;;;;;;4907885;29;20445;-86
2023/06/14 10:57:37;;;;;;;4.73;3.90;;;30.00;26.10;;;;;;4923456;29;20453;-86
2023/06/14 11:00:12;;;;;;;6.63;3.60;;;29.50;27.30;;;;;;4905794;29;20542;-85
2023/06/14 11:02:56;;;;;;;4.27;3.80;;;29.90;26.50;;;;;;4932105;29;20454;-85
2023/06/14 11:05:26;;;;;;;6.83;4.43;;;29.70;26.30;;;;;;4931015;29;21249;-85
2023/06/14 11:08:27;;;;;;;4.63;4.23;;;29.60;26.90;;;;;;4930374;29;20447;-85
2023/06/14 11:10:57;;;;;;;4.80;4.40;;;29.20;26.50;;;;;;4918745;29;20445;-85
2023/06/14 11:13:26;;;;;;;7.23;4.40;;;28.80;28.10;;;;;;4930014;29;20469;-86
2023/06/14 11:15:54;;;;;;;3.80;3.30;;;28.70;27.00;;;;;;4908648;29;20446;-85
2023/06/14 11:18:24;;;;;;;3.40;3.20;;;28.80;26.90;;;;;;4908324;29;20836;-87
2023/06/14 11:20:51;;;;;;;4.13;3.50;;;29.10;26.80;;;;;;4923928;29;20910;-85
2023/06/14 11:23:18;;;;;;;4.53;3.97;;;29.60;25.80;;;;;;4921577;29;20941;-87
2023/06/14 11:25:50;;;;;;;4.33;3.93;;;29.50;26.40;;;;;;4922835;29;20883;-86
2023/06/14 11:28:19;;;;;;;4.83;3.80;;;29.40;26.30;;;;;;4901676;29;20485;-86
2023/06/14 11:30:47;;;;;;;4.90;3.67;;;29.40;26.40;;;;;;4923631;29;20470;-86
2023/06/14 11:33:19;;;;;;;4.13;3.77;;;29.20;27.10;;;;;;4912157;29;20555;-85
2023/06/14 11:35:47;;;;;;;6.20;4.10;;;29.30;27.30;;;;;;4905130;29;20446;-85
2023/06/14 11:38:14;;;;;;;4.33;3.93;;;29.00;26.60;;;;;;4904092;29;20467;-86
2023/06/14 11:40:41;;;;;;;5.23;3.67;;;28.90;27.50;;;;;;4902579;29;20450;-86
2023/06/14 11:43:08;;;;;;;5.00;4.60;;;29.20;26.90;;;;;;4929282;28;20556;-87
2023/06/14 11:45:36;;;;;;;5.00;3.97;;;29.30;26.00;;;;;;4916510;29;20514;-87
2023/06/14 11:48:04;;;;;;;3.60;3.30;;;29.70;26.40;;;;;;4924845;29;20476;-85
2023/06/14 11:50:33;;;;;;;4.03;3.73;;;29.70;26.00;;;;;;4920479;29;20479;-86
2023/06/14 11:53:06;;;;;;;6.20;3.50;;;29.30;27.30;;;;;;4908445;29;21006;-87
2023/06/14 11:55:36;;;;;;;6.70;3.80;;;29.70;26.90;;;;;;4924708;29;20542;-88
2023/06/14 11:58:03;;;;;;;4.10;3.80;;;30.10;26.60;;;;;;4907718;29;21111;-87
2023/06/14 12:00:30;;;;;;;4.63;3.83;;;30.60;25.50;;;;;;4930045;29;20443;-87
2023/06/14 12:02:58;;;;;;;4.13;3.83;;;30.80;24.80;;;;;;4923079;29;21422;-86
2023/06/14 12:05:26;;;;;;;11.30;4.40;;;30.40;25.30;;;;;;4921302;29;20462;-85
2023/06/14 12:07:59;;;;;;;5.30;3.93;;;30.60;26.10;;;;;;4923218;29;20514;-85
2023/06/14 12:10:28;;;;;;;3.57;3.33;;;30.70;24.80;;;;;;4924934;29;21716;-86
2023/06/14 12:12:59;;;;;;;4.47;3.87;;;30.30;24.90;;;;;;4905128;29;20462;-85
2023/06/14 12:15:29;;;;;;;7.23;3.97;;;30.00;26.00;;;;;;4927834;29;20565;-84
2023/06/14 12:17:56;;;;;;;4.07;3.77;;;29.90;25.30;;;;;;4912746;29;20458;-86
2023/06/14 12:20:24;;;;;;;4.80;3.87;;;29.70;26.50;;;;;;4929756;29;20444;-86
2023/06/14 12:22:56;;;;;;;3.87;3.57;;;29.60;26.10;;;;;;4900577;29;20495;-85
2023/06/14 12:25:32;;;;;;;5.70;3.63;;;29.90;26.00;;;;;;4928960;28;21190;-86
2023/06/14 12:27:59;;;;;;;3.80;3.50;;;30.20;25.50;;;;;;4925554;28;20509;-86
2023/06/14 12:30:26;;;;;;;5.60;3.97;;;30.60;25.50;;;;;;4930186;29;22912;-86
2023/06/14 12:32:53;;;;;;;5.33;3.63;;;30.70;25.00;;;;;;4905660;29;20451;-85
2023/06/14 12:35:20;;;;;;;3.83;3.53;;;30.70;24.50;;;;;;4937442;29;20500;-86
2023/06/14 12:37:48;;;;;;;4.23;3.80;;;30.60;25.30;;;;;;4929147;28;20518;-86
2023/06/14 12:40:15;;;;;;;3.90;3.60;;;30.60;25.10;;;;;;4908048;29;20451;-87
2023/06/14 12:42:47;;;;;;;4.77;4.07;;;30.70;25.60;;;;;;4922517;29;20470;-86
2023/06/14 12:45:14;;;;;;;3.40;3.10;;;30.70;24.60;;;;;;4917102;29;20541;-87
2023/06/14 12:47:42;;;;;;;3.60;3.30;;;30.70;25.00;;;;;;4926724;29;20477;-87
2023/06/14 12:50:09;;;;;;;4.07;3.10;;;31.00;24.90;;;;;;4916245;29;20508;-84
2023/06/14 12:52:36;;;;;;;5.37;3.80;;;30.70;24.70;;;;;;4932331;29;20506;-86